Pagrindinis puslapis
METAR-TAF:

METAR-TAF

Oro uostai :

Oruras, Bolivija

platuma: 17-58S, ilguma: 067-04W, Aukštis: 3072 m

Dabartinis oras

Ataskaita buvo paskelbta 9 valandos ir 19 minutes, ne 18:00 UTC
Vėjas 8 kt iš Šiaurės
Temperatūra 20°C
Drėgmė 40%
Slėgis 1034 hPa
Matomumas 10 km arba daugiau
Išsisklaidę debesys ne aukštis 2000 ft
Mažai debesys ne aukštis 2300 ft, Liūtiniai kamuoliniai debesys.
Su prošvaistėmis ne aukštis 20000 ft

METAR: SLOR 161800Z 35008KT 9999 SCT020 FEW023CB BKN200 20/06 Q1034

Laikas: 23:19 (03:19 UTC)


TAF: trūkstamas

Orai ataskaitas ir orų prognozės (METAR, TAF).

turimą stotys yra geltonos ir raudonos taškus žemėlapyje.

Perkelti pele per norėdami pamatyti stoties vardą.

Tada spustelėkite, norėdami matyti oro stebėjimo ir prognozės.

Norėdami pakeisti žemėlapį: spustelėkite ant žalios mygtukų su juodo kryžiaus žemyn,; žalią mygtuką su brūkšneliu, jei norite nutolinti; arba žalių rodyklių gretimoms žemėlapius.


METAR-TAF: